Time;durP1;ratioP1;P1;durP2;ratioP2;P2;SDS_P1;SDS_P2;PMS_P1;PMS_P2;Temp;Humidity;BMP_temperature;BMP_pressure;BME280_temperature;BME280_humidity;BME280_pressure;Samples;Min_cycle;Max_cycle;Signal;HPM_P1;HPM_P2
2022/10/12 00:00:04;;;;;;;15.70;7.80;;;11.40;77.30;;;;;;5001467;28;20479;-76
2022/10/12 00:02:39;;;;;;;19.70;10.00;;;11.40;77.20;;;;;;5003743;28;20469;-76
2022/10/12 00:05:08;;;;;;;16.03;7.73;;;11.40;77.30;;;;;;5019364;28;20468;-77
2022/10/12 00:07:37;;;;;;;12.80;7.10;;;11.40;77.40;;;;;;5015794;28;20496;-76
2022/10/12 00:10:07;;;;;;;11.03;6.00;;;11.40;77.50;;;;;;5001044;28;21206;-76
2022/10/12 00:12:35;;;;;;;11.87;6.93;;;11.40;77.50;;;;;;5015208;28;21034;-77
2022/10/12 00:15:04;;;;;;;15.87;6.53;;;11.40;77.50;;;;;;4998911;28;20523;-77
2022/10/12 00:17:32;;;;;;;14.00;6.20;;;11.40;77.40;;;;;;5000908;28;20453;-77
2022/10/12 00:20:00;;;;;;;11.27;6.30;;;11.30;77.30;;;;;;4997918;28;20512;-77
2022/10/12 00:22:28;;;;;;;13.63;5.63;;;11.30;77.30;;;;;;5001601;28;20449;-76
2022/10/12 00:24:56;;;;;;;11.87;5.50;;;11.30;77.50;;;;;;5003585;28;20805;-77
2022/10/12 00:27:25;;;;;;;12.60;6.40;;;11.30;77.50;;;;;;5000085;28;20511;-77
2022/10/12 00:29:53;;;;;;;9.90;5.47;;;11.30;77.50;;;;;;5002065;28;20473;-77
2022/10/12 00:32:21;;;;;;;12.10;5.87;;;11.20;77.40;;;;;;4998470;28;20458;-77
2022/10/12 00:34:49;;;;;;;10.13;5.30;;;11.20;77.40;;;;;;4996453;28;20453;-77
2022/10/12 00:37:17;;;;;;;12.53;4.90;;;11.20;77.40;;;;;;4997458;28;20506;-77
2022/10/12 00:39:45;;;;;;;15.67;5.60;;;11.20;77.40;;;;;;4998540;28;21450;-77
2022/10/12 00:42:13;;;;;;;15.30;6.70;;;11.20;77.30;;;;;;4998594;28;20525;-77
2022/10/12 00:44:44;;;;;;;14.30;5.40;;;11.10;77.30;;;;;;5000403;28;20464;-77
2022/10/12 00:47:20;;;;;;;26.33;11.20;;;11.10;77.40;;;;;;5000533;28;20453;-77
2022/10/12 00:49:52;;;;;;;16.73;8.07;;;11.10;77.30;;;;;;5002316;28;20558;-77
2022/10/12 00:52:26;;;;;;;32.33;16.40;;;11.10;77.30;;;;;;4999955;28;21386;-77
2022/10/12 00:54:54;;;;;;;24.87;13.87;;;11.10;77.30;;;;;;4996867;28;20457;-77
2022/10/12 00:57:24;;;;;;;29.13;13.87;;;11.00;77.40;;;;;;4995112;28;20458;-77
2022/10/12 00:59:58;;;;;;;18.63;8.80;;;11.00;77.50;;;;;;5004535;28;20531;-76
2022/10/12 01:02:29;;;;;;;21.90;9.80;;;11.00;77.60;;;;;;4997463;28;20502;-77
2022/10/12 01:04:57;;;;;;;18.60;7.20;;;11.00;77.60;;;;;;4997347;28;21101;-77
2022/10/12 01:07:26;;;;;;;27.47;13.43;;;11.00;77.60;;;;;;5003376;28;20507;-77
2022/10/12 01:09:54;;;;;;;24.83;10.80;;;11.00;77.70;;;;;;5001951;28;20523;-77
2022/10/12 01:12:23;;;;;;;13.33;6.37;;;11.00;77.70;;;;;;4998144;28;20528;-77
2022/10/12 01:14:52;;;;;;;14.13;6.70;;;11.00;77.70;;;;;;4999748;28;20457;-77
2022/10/12 01:17:34;;;;;;;10.30;6.07;;;11.00;77.70;;;;;;4996312;28;20461;-77
2022/10/12 01:20:33;;;;;;;14.80;7.40;;;11.00;77.60;;;;;;4996227;28;20486;-77
2022/10/12 01:23:20;;;;;;;13.03;6.30;;;11.00;77.60;;;;;;4996084;28;20500;-77
2022/10/12 01:26:10;;;;;;;15.30;6.43;;;10.90;77.70;;;;;;5015136;28;21325;-77
2022/10/12 01:28:48;;;;;;;11.87;6.57;;;10.90;77.70;;;;;;4997567;28;20460;-77
2022/10/12 01:31:25;;;;;;;11.30;5.60;;;10.90;77.70;;;;;;4998988;28;20977;-77
2022/10/12 01:34:07;;;;;;;11.30;6.60;;;10.90;77.70;;;;;;5001469;28;20452;-77
2022/10/12 01:36:40;;;;;;;12.50;6.30;;;10.90;77.50;;;;;;4999698;28;20461;-77
2022/10/12 01:39:14;;;;;;;15.27;6.00;;;10.80;77.50;;;;;;4995343;28;20523;-77
2022/10/12 01:41:46;;;;;;;16.90;7.80;;;10.80;77.60;;;;;;4996932;28;20918;-77
2022/10/12 01:44:21;;;;;;;18.73;8.30;;;10.80;77.60;;;;;;5004255;28;21141;-77
2022/10/12 01:46:52;;;;;;;11.83;5.90;;;10.80;77.50;;;;;;4999405;28;20962;-77
2022/10/12 01:49:24;;;;;;;12.20;6.40;;;10.70;77.40;;;;;;4997307;28;20477;-76
2022/10/12 01:52:15;;;;;;;9.57;5.73;;;10.70;77.50;;;;;;4999425;28;20503;-76
2022/10/12 01:54:58;;;;;;;12.53;6.10;;;10.70;77.60;;;;;;4998034;28;20503;-76
2022/10/12 01:57:33;;;;;;;13.40;6.60;;;10.70;77.60;;;;;;4997605;28;20473;-76
2022/10/12 02:00:09;;;;;;;13.90;6.63;;;10.70;77.50;;;;;;5006797;28;20538;-76
2022/10/12 02:02:49;;;;;;;14.27;6.80;;;10.70;77.50;;;;;;4999093;28;20449;-76
2022/10/12 02:05:24;;;;;;;11.47;5.87;;;10.70;77.40;;;;;;5014859;28;20950;-76
2022/10/12 02:07:57;;;;;;;16.37;6.33;;;10.60;77.40;;;;;;4997598;28;20869;-77
2022/10/12 02:10:29;;;;;;;17.40;5.27;;;10.60;77.40;;;;;;4998411;28;20469;-77
2022/10/12 02:13:00;;;;;;;11.07;4.60;;;10.60;77.30;;;;;;4996439;28;20943;-76
2022/10/12 02:15:30;;;;;;;9.50;4.70;;;10.60;77.30;;;;;;5012114;28;20881;-76
2022/10/12 02:18:03;;;;;;;13.70;4.70;;;10.50;77.20;;;;;;4996895;28;20462;-78
2022/10/12 02:20:33;;;;;;;11.10;4.80;;;10.50;77.30;;;;;;5017728;28;21190;-77
2022/10/12 02:23:02;;;;;;;14.67;5.20;;;10.50;77.30;;;;;;5016490;28;20476;-77
2022/10/12 02:25:33;;;;;;;14.90;5.20;;;10.50;77.20;;;;;;4999447;28;20531;-77
2022/10/12 02:28:05;;;;;;;9.90;4.93;;;10.50;77.10;;;;;;5005664;28;20453;-76
2022/10/12 02:30:38;;;;;;;8.90;4.47;;;10.40;76.90;;;;;;5014358;28;20472;-78
2022/10/12 02:33:13;;;;;;;11.47;4.80;;;10.40;77.00;;;;;;4996844;28;20827;-77
2022/10/12 02:35:48;;;;;;;10.80;4.97;;;10.30;77.10;;;;;;4999434;28;20874;-78
2022/10/12 02:38:19;;;;;;;8.90;4.73;;;10.30;77.10;;;;;;4992885;28;20783;-76
2022/10/12 02:40:53;;;;;;;12.93;4.73;;;10.30;77.10;;;;;;4998461;28;20485;-77
2022/10/12 02:43:24;;;;;;;13.53;4.60;;;10.20;77.00;;;;;;5000278;28;20480;-76
2022/10/12 02:45:55;;;;;;;11.03;4.17;;;10.20;77.00;;;;;;4995083;28;20457;-77
2022/10/12 02:48:25;;;;;;;9.17;3.90;;;10.20;77.10;;;;;;4991742;28;20528;-77
2022/10/12 02:50:56;;;;;;;8.17;4.20;;;10.20;77.00;;;;;;5000228;28;20480;-77
2022/10/12 02:53:26;;;;;;;13.93;4.60;;;10.20;77.00;;;;;;4995867;28;20453;-78
2022/10/12 02:55:59;;;;;;;11.30;4.23;;;10.20;77.00;;;;;;5010130;28;20460;-77
2022/10/12 02:58:27;;;;;;;7.70;3.60;;;10.20;77.00;;;;;;4997817;28;20953;-77
2022/10/12 03:00:55;;;;;;;8.03;3.97;;;10.20;76.90;;;;;;4998251;28;21072;-77
2022/10/12 03:03:24;;;;;;;9.10;4.33;;;10.10;76.80;;;;;;4999657;28;20464;-77
2022/10/12 03:05:52;;;;;;;9.60;4.20;;;10.10;76.80;;;;;;4995850;28;20906;-76
2022/10/12 03:08:20;;;;;;;10.60;4.07;;;10.10;76.80;;;;;;4998105;28;20520;-77
2022/10/12 03:10:48;;;;;;;11.47;4.70;;;10.10;76.80;;;;;;4998700;28;21047;-77
2022/10/12 03:13:16;;;;;;;7.37;3.90;;;10.10;76.70;;;;;;4998990;28;20460;-77
2022/10/12 03:15:44;;;;;;;8.30;4.50;;;10.00;76.70;;;;;;5000018;28;20449;-77
2022/10/12 03:18:12;;;;;;;7.00;4.00;;;10.00;76.70;;;;;;5002702;28;21155;-76
2022/10/12 03:20:41;;;;;;;6.17;3.60;;;10.00;76.80;;;;;;5004429;28;20544;-78
2022/10/12 03:23:09;;;;;;;6.23;3.80;;;10.00;76.70;;;;;;5000738;28;20456;-78
2022/10/12 03:25:37;;;;;;;9.23;4.83;;;10.00;76.70;;;;;;4998774;28;20465;-78
2022/10/12 03:28:05;;;;;;;6.43;3.83;;;10.00;76.60;;;;;;4995972;28;20460;-76
2022/10/12 03:30:33;;;;;;;12.20;5.27;;;9.90;76.50;;;;;;4997319;28;21451;-77
2022/10/12 03:33:01;;;;;;;7.47;4.40;;;9.90;76.50;;;;;;4995279;28;20503;-77
2022/10/12 03:35:29;;;;;;;5.60;3.60;;;9.80;76.50;;;;;;5001400;28;20457;-78
2022/10/12 03:37:58;;;;;;;6.50;3.13;;;9.80;76.50;;;;;;5019274;28;21295;-76
2022/10/12 03:40:26;;;;;;;8.00;3.50;;;9.80;76.50;;;;;;5018634;28;20542;-77
2022/10/12 03:42:54;;;;;;;7.50;4.00;;;9.80;76.40;;;;;;5000085;28;20524;-77
2022/10/12 03:45:22;;;;;;;7.97;4.37;;;9.70;76.40;;;;;;4997917;28;20457;-77
2022/10/12 03:47:50;;;;;;;10.80;4.90;;;9.70;76.30;;;;;;5001368;28;20516;-77
2022/10/12 03:50:18;;;;;;;8.20;4.30;;;9.60;76.30;;;;;;4998637;28;20559;-77
2022/10/12 03:52:46;;;;;;;8.03;4.10;;;9.60;76.20;;;;;;4999332;28;20551;-77
2022/10/12 03:55:16;;;;;;;5.50;3.33;;;9.60;76.40;;;;;;5001365;28;20501;-77
2022/10/12 03:57:44;;;;;;;8.53;4.17;;;9.60;76.60;;;;;;4996834;28;20511;-77
2022/10/12 04:00:13;;;;;;;8.67;4.07;;;9.60;76.60;;;;;;5016317;28;20482;-77
2022/10/12 04:02:41;;;;;;;8.63;4.70;;;9.60;76.60;;;;;;5016355;28;21080;-78
2022/10/12 04:05:09;;;;;;;7.93;4.17;;;9.60;76.40;;;;;;4999755;28;20507;-77
2022/10/12 04:07:37;;;;;;;7.28;3.90;;;9.60;76.40;;;;;;4997359;28;20508;-78
2022/10/12 04:10:07;;;;;;;11.87;4.40;;;9.60;76.60;;;;;;5016486;28;20715;-77
2022/10/12 04:12:36;;;;;;;8.88;3.53;;;9.60;76.60;;;;;;5002545;28;20576;-77
2022/10/12 04:15:05;;;;;;;8.50;4.40;;;9.60;76.40;;;;;;5005514;28;20210;-77
2022/10/12 04:17:33;;;;;;;10.10;3.20;;;9.60;76.40;;;;;;5005380;28;21220;-78
2022/10/12 04:20:01;;;;;;;10.90;4.20;;;9.60;76.40;;;;;;4997240;28;20485;-77
2022/10/12 04:22:29;;;;;;;7.20;4.10;;;9.60;76.30;;;;;;5019644;28;20560;-76
2022/10/12 04:24:57;;;;;;;9.20;4.90;;;9.60;76.30;;;;;;5000693;28;20452;-76
2022/10/12 04:27:25;;;;;;;7.10;3.83;;;9.60;76.30;;;;;;5004943;28;20519;-75
2022/10/12 04:29:55;;;;;;;7.60;4.60;;;9.60;76.20;;;;;;5004030;28;20884;-78
2022/10/12 04:32:23;;;;;;;11.10;4.07;;;9.50;76.10;;;;;;4999741;28;20445;-78
2022/10/12 04:34:51;;;;;;;13.97;4.63;;;9.50;76.10;;;;;;5002801;28;20485;-77
2022/10/12 04:37:19;;;;;;;11.00;4.73;;;9.50;76.10;;;;;;5002304;28;20445;-77
2022/10/12 04:39:47;;;;;;;9.40;4.23;;;9.50;76.20;;;;;;5001527;28;20491;-76
2022/10/12 04:42:15;;;;;;;10.57;4.53;;;9.40;76.20;;;;;;5015799;28;20480;-76
2022/10/12 04:44:42;;;;;;;8.30;4.33;;;9.40;76.20;;;;;;4997546;28;20280;-76
2022/10/12 04:47:12;;;;;;;7.40;4.50;;;9.40;76.20;;;;;;5000385;28;20457;-78
2022/10/12 04:49:40;;;;;;;6.90;4.07;;;9.40;76.30;;;;;;5016612;28;20538;-77
2022/10/12 04:52:08;;;;;;;8.27;4.50;;;9.40;76.40;;;;;;5000468;28;20469;-76
2022/10/12 04:54:36;;;;;;;9.80;3.80;;;9.40;76.50;;;;;;5005452;28;20510;-77
2022/10/12 04:57:04;;;;;;;8.33;4.40;;;9.40;76.40;;;;;;5002679;28;20252;-77
2022/10/12 04:59:32;;;;;;;8.60;4.13;;;9.40;76.40;;;;;;5003955;28;20484;-77
2022/10/12 05:02:00;;;;;;;12.13;4.37;;;9.40;76.60;;;;;;5001834;28;20484;-78
2022/10/12 05:04:29;;;;;;;15.30;5.03;;;9.40;76.70;;;;;;4999176;28;20540;-76
2022/10/12 05:06:57;;;;;;;18.42;5.18;;;9.50;76.80;;;;;;5000219;28;20996;-76
2022/10/12 05:09:25;;;;;;;8.40;5.40;;;9.50;76.70;;;;;;4993770;28;20226;-77
2022/10/12 05:11:53;;;;;;;13.30;6.90;;;9.50;76.70;;;;;;5017083;28;20519;-77
2022/10/12 05:14:21;;;;;;;10.23;5.10;;;9.50;76.80;;;;;;5000881;28;21133;-77
2022/10/12 05:16:49;;;;;;;10.27;6.03;;;9.50;76.90;;;;;;4997433;28;20528;-78
2022/10/12 05:19:16;;;;;;;12.10;5.30;;;9.60;77.00;;;;;;5002689;28;20477;-78
2022/10/12 05:21:46;;;;;;;12.25;4.85;;;9.60;77.00;;;;;;5000621;28;21274;-76
2022/10/12 05:24:14;;;;;;;8.83;4.80;;;9.60;77.00;;;;;;5001768;28;20217;-77
2022/10/12 05:26:42;;;;;;;8.47;4.80;;;9.70;77.00;;;;;;5001392;28;20456;-77
2022/10/12 05:29:10;;;;;;;10.48;3.80;;;9.70;76.90;;;;;;4997526;28;20481;-78
2022/10/12 05:31:38;;;;;;;9.20;4.90;;;9.70;77.00;;;;;;5001741;28;20233;-78
2022/10/12 05:34:06;;;;;;;10.33;4.60;;;9.80;77.00;;;;;;4997559;28;20516;-76
2022/10/12 05:36:34;;;;;;;8.97;4.10;;;9.80;77.00;;;;;;5000142;28;20454;-78
2022/10/12 05:39:03;;;;;;;16.60;5.17;;;9.80;77.10;;;;;;5003249;28;20530;-76
2022/10/12 05:41:31;;;;;;;12.30;4.90;;;9.80;77.10;;;;;;5001648;28;21042;-76
2022/10/12 05:43:59;;;;;;;10.48;5.50;;;9.80;77.20;;;;;;5001351;28;20963;-75
2022/10/12 05:46:27;;;;;;;14.53;5.53;;;9.80;77.20;;;;;;4999816;28;20198;-75
2022/10/12 05:48:55;;;;;;;8.07;4.63;;;9.90;77.20;;;;;;4998838;28;20516;-76
2022/10/12 05:51:23;;;;;;;9.57;4.90;;;9.90;77.20;;;;;;5001945;28;21254;-77
2022/10/12 05:53:55;;;;;;;7.50;4.63;;;9.90;77.20;;;;;;4998676;28;20489;-78
2022/10/12 05:56:25;;;;;;;9.73;5.00;;;9.90;77.20;;;;;;4995131;28;20457;-76
2022/10/12 05:58:53;;;;;;;8.07;3.93;;;9.90;77.20;;;;;;5016015;28;20461;-77
2022/10/12 06:01:21;;;;;;;9.93;4.70;;;9.90;77.10;;;;;;4996840;28;21216;-77
2022/10/12 06:03:49;;;;;;;6.97;3.80;;;9.90;77.10;;;;;;4996551;28;20475;-77
2022/10/12 06:06:17;;;;;;;11.40;4.93;;;9.90;77.10;;;;;;4999464;28;20878;-77
2022/10/12 06:08:45;;;;;;;8.13;3.90;;;9.90;77.10;;;;;;4995596;28;20457;-77
2022/10/12 06:11:13;;;;;;;8.83;4.00;;;9.80;77.10;;;;;;4998174;28;20465;-77
2022/10/12 06:13:43;;;;;;;8.80;4.17;;;9.80;77.10;;;;;;4998489;28;20461;-77
2022/10/12 06:16:11;;;;;;;8.80;3.90;;;9.80;77.00;;;;;;4996837;28;20867;-78
2022/10/12 06:18:39;;;;;;;7.47;3.67;;;9.80;77.00;;;;;;4999468;28;20468;-77
2022/10/12 06:21:07;;;;;;;6.97;3.70;;;9.80;77.00;;;;;;4999868;28;21354;-77
2022/10/12 06:23:55;;;;;;;10.50;3.70;;;9.80;77.00;;;;;;5000207;28;20485;-77
2022/10/12 06:26:23;;;;;;;9.80;4.03;;;9.80;77.00;;;;;;4999373;28;20560;-77
2022/10/12 06:28:53;;;;;;;9.90;4.50;;;9.80;77.00;;;;;;4993572;28;20461;-77
2022/10/12 06:31:21;;;;;;;7.77;3.87;;;9.80;77.00;;;;;;4995693;28;21036;-75
2022/10/12 06:33:49;;;;;;;6.50;3.70;;;9.80;77.00;;;;;;4997050;28;20450;-76
2022/10/12 06:36:17;;;;;;;12.27;4.77;;;9.80;77.00;;;;;;4996306;28;20460;-76
2022/10/12 06:38:45;;;;;;;8.73;4.65;;;9.80;76.90;;;;;;4997870;28;20492;-76
2022/10/12 06:41:13;;;;;;;50.45;27.85;;;9.70;76.80;;;;;;5000404;28;20205;-76
2022/10/12 06:43:41;;;;;;;21.80;10.77;;;9.70;76.90;;;;;;4999822;28;21128;-78
2022/10/12 06:46:11;;;;;;;12.83;5.50;;;9.70;77.00;;;;;;4998782;28;20485;-76
2022/10/12 06:48:39;;;;;;;9.20;5.00;;;9.80;77.20;;;;;;5000491;28;20461;-75
2022/10/12 06:51:06;;;;;;;13.40;5.20;;;9.80;77.20;;;;;;5011921;28;20512;-76
2022/10/12 06:53:35;;;;;;;14.23;7.30;;;9.80;77.30;;;;;;4996348;28;20454;-76
2022/10/12 06:56:06;;;;;;;16.10;8.67;;;9.80;77.40;;;;;;5013357;28;20495;-77
2022/10/12 06:58:34;;;;;;;10.73;6.20;;;9.90;77.50;;;;;;4998139;28;21017;-76
2022/10/12 07:01:03;;;;;;;10.50;4.73;;;10.00;77.50;;;;;;4998891;28;20476;-77
2022/10/12 07:03:32;;;;;;;9.07;5.37;;;10.00;77.50;;;;;;5001509;28;20823;-77
2022/10/12 07:06:08;;;;;;;10.10;4.80;;;10.00;77.50;;;;;;5000105;28;20457;-77
2022/10/12 07:08:37;;;;;;;9.73;4.80;;;10.10;77.60;;;;;;4999991;28;20452;-77
2022/10/12 07:11:07;;;;;;;6.33;4.10;;;10.10;77.70;;;;;;5003693;28;20473;-77
2022/10/12 07:13:35;;;;;;;8.20;4.30;;;10.20;77.80;;;;;;5016220;28;20456;-77
2022/10/12 07:16:04;;;;;;;17.40;4.67;;;10.20;77.90;;;;;;4999917;28;20453;-77
2022/10/12 07:18:34;;;;;;;11.73;5.00;;;10.30;77.90;;;;;;5015683;28;20543;-75
2022/10/12 07:21:02;;;;;;;8.40;4.57;;;10.40;77.90;;;;;;5001751;28;20948;-78
2022/10/12 07:23:31;;;;;;;10.00;4.57;;;10.40;77.80;;;;;;4995876;28;20582;-77
2022/10/12 07:25:59;;;;;;;9.97;4.60;;;10.40;77.80;;;;;;4997432;28;20453;-75
2022/10/12 07:28:28;;;;;;;7.50;4.90;;;10.50;77.80;;;;;;5004228;28;20547;-76
2022/10/12 07:31:00;;;;;;;9.53;4.50;;;10.50;77.90;;;;;;5003569;28;20479;-76
2022/10/12 07:33:33;;;;;;;12.33;5.23;;;10.50;78.00;;;;;;5000767;28;21033;-77
2022/10/12 07:36:02;;;;;;;10.73;5.13;;;10.50;77.90;;;;;;5000949;28;20461;-75
2022/10/12 07:38:43;;;;;;;8.17;4.50;;;10.50;78.00;;;;;;5002497;28;20487;-77
2022/10/12 07:41:13;;;;;;;15.50;5.20;;;10.50;78.00;;;;;;4999212;28;20462;-77
2022/10/12 07:43:41;;;;;;;15.63;7.93;;;10.50;78.10;;;;;;5000588;28;20509;-77
2022/10/12 07:46:10;;;;;;;12.87;6.60;;;10.50;78.00;;;;;;5000681;28;20465;-75
2022/10/12 07:48:40;;;;;;;18.37;7.40;;;10.50;78.10;;;;;;5006381;28;20456;-75
2022/10/12 07:51:15;;;;;;;15.00;7.90;;;10.50;78.20;;;;;;5001871;28;20515;-77
2022/10/12 07:53:43;;;;;;;16.83;7.37;;;10.50;78.40;;;;;;4996248;28;20453;-77
2022/10/12 07:56:14;;;;;;;13.53;5.80;;;10.60;78.40;;;;;;4999181;28;21044;-76
2022/10/12 07:58:42;;;;;;;12.67;6.93;;;10.60;78.50;;;;;;5015363;28;20452;-75
2022/10/12 08:01:10;;;;;;;13.07;6.00;;;10.70;78.60;;;;;;5007688;28;20482;-75
2022/10/12 08:03:40;;;;;;;15.90;7.37;;;10.80;78.60;;;;;;5013280;28;20542;-75
2022/10/12 08:06:09;;;;;;;12.90;6.50;;;10.80;78.70;;;;;;4997702;28;20445;-77
2022/10/12 08:08:38;;;;;;;14.40;6.80;;;10.80;78.50;;;;;;5002026;28;20450;-77
2022/10/12 08:11:07;;;;;;;12.40;6.50;;;10.90;78.60;;;;;;5001084;28;20465;-77
2022/10/12 08:13:35;;;;;;;13.63;7.90;;;10.90;78.60;;;;;;5000353;28;20465;-77
2022/10/12 08:16:05;;;;;;;18.27;6.87;;;10.90;78.70;;;;;;4999150;28;20469;-77
2022/10/12 08:18:33;;;;;;;15.00;6.67;;;11.00;78.70;;;;;;5000018;28;20504;-76
2022/10/12 08:21:03;;;;;;;14.77;7.57;;;11.10;78.70;;;;;;4999016;28;20504;-76
2022/10/12 08:23:32;;;;;;;12.80;6.80;;;11.10;78.70;;;;;;4997115;28;20452;-77
2022/10/12 08:26:00;;;;;;;23.03;8.27;;;11.20;78.70;;;;;;4999158;28;20866;-77
2022/10/12 08:28:28;;;;;;;24.20;8.53;;;11.20;78.70;;;;;;5002333;28;20511;-76
2022/10/12 08:30:56;;;;;;;12.50;7.73;;;11.20;78.90;;;;;;4998376;28;20477;-77
2022/10/12 08:33:24;;;;;;;18.90;8.00;;;11.30;78.90;;;;;;5002223;28;20464;-77
2022/10/12 08:35:52;;;;;;;18.83;6.80;;;11.40;79.00;;;;;;5001728;28;20869;-77
2022/10/12 08:38:21;;;;;;;11.70;7.87;;;11.40;79.00;;;;;;5000030;28;20458;-75
2022/10/12 08:40:54;;;;;;;12.57;7.53;;;11.50;79.00;;;;;;5012709;28;20477;-76
2022/10/12 08:43:36;;;;;;;15.33;8.43;;;11.50;79.00;;;;;;5019008;28;20457;-77
2022/10/12 08:46:05;;;;;;;14.10;7.07;;;11.60;78.90;;;;;;4999995;28;20489;-76
2022/10/12 08:48:39;;;;;;;15.10;7.47;;;11.60;79.00;;;;;;4999105;28;20516;-77
2022/10/12 08:51:13;;;;;;;15.10;8.30;;;11.70;79.10;;;;;;5001248;28;20539;-76
2022/10/12 08:53:49;;;;;;;16.43;8.00;;;11.70;79.20;;;;;;4999305;28;20511;-75
2022/10/12 08:56:18;;;;;;;15.60;7.70;;;11.80;79.20;;;;;;5016448;28;20465;-77
2022/10/12 08:58:50;;;;;;;12.43;8.00;;;11.90;79.00;;;;;;5001399;28;20970;-77
2022/10/12 09:01:25;;;;;;;21.93;8.13;;;11.90;79.00;;;;;;5002912;28;20453;-77
2022/10/12 09:04:14;;;;;;;15.57;8.97;;;11.90;79.10;;;;;;5000629;28;20517;-77
2022/10/12 09:06:47;;;;;;;17.87;9.50;;;12.00;79.30;;;;;;5018371;28;20859;-77
2022/10/12 09:09:32;;;;;;;21.00;10.00;;;12.00;79.30;;;;;;4997366;28;20481;-77
2022/10/12 09:12:20;;;;;;;27.57;9.67;;;12.00;79.40;;;;;;5003162;28;20468;-77
2022/10/12 09:14:51;;;;;;;16.47;8.23;;;12.10;79.50;;;;;;5000413;28;20441;-75
2022/10/12 09:17:26;;;;;;;19.63;10.37;;;12.20;79.50;;;;;;4998414;28;20453;-75
2022/10/12 09:20:02;;;;;;;14.57;8.10;;;12.20;79.60;;;;;;4999342;28;20533;-76
2022/10/12 09:22:33;;;;;;;17.30;8.40;;;12.30;79.60;;;;;;4997981;28;20459;-76
2022/10/12 09:25:03;;;;;;;19.63;8.80;;;12.30;79.70;;;;;;5016331;28;20481;-76
2022/10/12 09:27:32;;;;;;;26.43;9.40;;;12.40;79.70;;;;;;5012843;28;20452;-75
2022/10/12 09:30:03;;;;;;;23.93;9.20;;;12.40;79.80;;;;;;4994892;28;20473;-77
2022/10/12 09:32:55;;;;;;;19.50;10.83;;;12.40;79.90;;;;;;5001072;28;20515;-77
2022/10/12 09:35:24;;;;;;;19.30;10.70;;;12.50;80.00;;;;;;4996543;28;20445;-75
2022/10/12 09:37:53;;;;;;;14.43;9.97;;;12.50;80.00;;;;;;4998518;28;20462;-76
2022/10/12 09:40:25;;;;;;;19.83;9.30;;;12.60;80.10;;;;;;4996422;28;20931;-76
2022/10/12 09:42:55;;;;;;;15.17;9.70;;;12.60;80.00;;;;;;4997797;28;20461;-79
2022/10/12 09:45:23;;;;;;;20.20;10.10;;;12.70;80.10;;;;;;4998789;28;20877;-77
2022/10/12 09:48:16;;;;;;;17.70;10.23;;;12.70;80.10;;;;;;4997308;28;21355;-75
2022/10/12 09:50:48;;;;;;;17.50;9.10;;;12.80;80.20;;;;;;4997221;28;21029;-75
2022/10/12 09:53:26;;;;;;;16.87;8.77;;;12.80;80.30;;;;;;5011508;28;20465;-77
2022/10/12 09:55:58;;;;;;;17.63;9.57;;;12.80;80.30;;;;;;4997258;28;20507;-77
2022/10/12 09:58:28;;;;;;;18.50;9.47;;;12.80;80.30;;;;;;4998962;28;20462;-76
2022/10/12 10:01:22;;;;;;;18.47;9.40;;;12.90;80.40;;;;;;4999658;28;20521;-78
2022/10/12 10:04:07;;;;;;;22.90;10.60;;;12.90;80.40;;;;;;4996834;28;20456;-77
2022/10/12 10:06:36;;;;;;;17.73;10.07;;;12.90;80.40;;;;;;4996944;28;20555;-78
2022/10/12 10:09:04;;;;;;;15.77;9.37;;;12.90;80.50;;;;;;4999103;28;20449;-76
2022/10/12 10:11:34;;;;;;;23.43;10.00;;;13.00;80.50;;;;;;5000333;28;20472;-75
2022/10/12 10:14:02;;;;;;;19.07;10.10;;;13.00;80.60;;;;;;4996204;28;20457;-75
2022/10/12 10:16:31;;;;;;;20.10;10.10;;;13.00;80.60;;;;;;4996611;28;20976;-77
2022/10/12 10:19:01;;;;;;;18.27;11.00;;;13.00;80.70;;;;;;4998688;28;20515;-77
2022/10/12 10:21:33;;;;;;;21.87;12.67;;;13.10;80.80;;;;;;5011456;28;20533;-76
2022/10/12 10:24:02;;;;;;;21.13;12.27;;;13.20;80.90;;;;;;4999718;28;20457;-77
2022/10/12 10:26:52;;;;;;;23.20;11.73;;;13.20;81.00;;;;;;4997597;28;20477;-77
2022/10/12 10:29:32;;;;;;;21.53;13.13;;;13.30;81.00;;;;;;4985571;28;20567;-79
2022/10/12 10:32:11;;;;;;;25.10;12.60;;;13.40;81.10;;;;;;4999709;28;20458;-79
2022/10/12 10:34:41;;;;;;;25.63;13.27;;;13.40;81.20;;;;;;4995852;28;20449;-78
2022/10/12 10:37:18;;;;;;;22.17;13.63;;;13.50;81.30;;;;;;4995434;28;21277;-79
2022/10/12 10:39:49;;;;;;;24.40;13.43;;;13.60;81.30;;;;;;5014657;28;20489;-79
2022/10/12 10:42:21;;;;;;;24.43;14.80;;;13.60;81.40;;;;;;4993942;28;20460;-79
2022/10/12 10:44:52;;;;;;;27.00;14.77;;;13.70;81.50;;;;;;4998972;28;20560;-79
2022/10/12 10:47:20;;;;;;;28.23;16.50;;;13.70;81.60;;;;;;4995145;28;20457;-78
2022/10/12 10:49:54;;;;;;;22.30;13.37;;;13.80;81.60;;;;;;4997127;28;20481;-78
2022/10/12 10:52:25;;;;;;;24.90;14.27;;;13.90;81.70;;;;;;4995537;28;20457;-79
2022/10/12 10:55:14;;;;;;;26.63;13.50;;;13.90;81.70;;;;;;4999589;28;20453;-78
2022/10/12 10:57:49;;;;;;;32.30;14.50;;;14.00;81.80;;;;;;4997091;28;20520;-79
2022/10/12 11:00:20;;;;;;;26.70;14.73;;;14.10;81.80;;;;;;4996696;28;20471;-78
2022/10/12 11:03:13;;;;;;;30.27;14.73;;;14.10;81.80;;;;;;4993611;28;20452;-78
2022/10/12 11:05:45;;;;;;;20.63;12.30;;;14.20;81.90;;;;;;4995306;28;20487;-79
2022/10/12 11:08:19;;;;;;;26.67;12.73;;;14.30;81.80;;;;;;4997179;28;20457;-79
2022/10/12 11:10:50;;;;;;;31.57;14.73;;;14.30;81.80;;;;;;4994340;28;21173;-78
2022/10/12 11:13:23;;;;;;;26.07;15.80;;;14.40;81.90;;;;;;5000689;28;21134;-79
2022/10/12 11:15:55;;;;;;;28.97;13.50;;;14.50;81.90;;;;;;4995148;28;20456;-78
2022/10/12 11:18:27;;;;;;;29.30;15.67;;;14.60;81.90;;;;;;4997922;28;20538;-78
2022/10/12 11:20:58;;;;;;;25.07;14.40;;;14.60;81.70;;;;;;4994840;28;21203;-78
2022/10/12 11:23:35;;;;;;;30.00;14.57;;;14.60;81.70;;;;;;4994462;28;20453;-77
2022/10/12 11:26:20;;;;;;;21.70;14.07;;;14.70;81.70;;;;;;4997310;28;20900;-79
2022/10/12 11:28:50;;;;;;;24.90;16.03;;;14.70;81.80;;;;;;4995810;28;20453;-78
2022/10/12 11:31:24;;;;;;;24.37;16.00;;;14.80;81.70;;;;;;4999481;28;20488;-79
2022/10/12 11:33:53;;;;;;;27.13;14.40;;;14.90;81.60;;;;;;4994838;28;20453;-79
2022/10/12 11:36:26;;;;;;;25.63;14.53;;;14.90;81.50;;;;;;4992289;28;21361;-79
2022/10/12 11:38:59;;;;;;;20.70;14.23;;;14.90;81.40;;;;;;4995665;28;21002;-79
2022/10/12 11:41:44;;;;;;;24.50;13.70;;;15.00;81.40;;;;;;4998823;28;20476;-79
2022/10/12 11:44:40;;;;;;;19.93;13.67;;;15.00;81.50;;;;;;5012542;28;21332;-79
2022/10/12 11:47:15;;;;;;;20.73;13.50;;;15.10;81.50;;;;;;4999175;28;20484;-78
2022/10/12 11:49:51;;;;;;;21.97;13.60;;;15.20;81.40;;;;;;4995390;28;20476;-79
2022/10/12 11:52:21;;;;;;;26.67;14.20;;;15.20;81.40;;;;;;4996468;28;21336;-79
2022/10/12 11:55:03;;;;;;;21.30;12.80;;;15.30;81.30;;;;;;4996593;28;20539;-78
2022/10/12 11:57:35;;;;;;;20.00;12.80;;;15.30;81.20;;;;;;5000199;28;20449;-77
2022/10/12 12:00:07;;;;;;;21.63;13.83;;;15.40;81.20;;;;;;5000833;28;20500;-78
2022/10/12 12:02:45;;;;;;;25.63;14.67;;;15.40;81.00;;;;;;5000108;28;20492;-77
2022/10/12 12:05:15;;;;;;;21.00;14.30;;;15.40;80.90;;;;;;4998176;28;20452;-78
2022/10/12 12:07:47;;;;;;;24.80;13.60;;;15.40;80.90;;;;;;5000308;28;20815;-77
2022/10/12 12:11:03;;;;;;;23.63;13.30;;;15.50;80.80;;;;;;5001779;28;21463;-80
2022/10/12 12:13:32;;;;;;;23.87;13.70;;;15.50;81.00;;;;;;4974852;28;20453;-80
2022/10/12 12:16:32;;;;;;;20.30;13.53;;;15.60;81.00;;;;;;4997927;28;20446;-80
2022/10/12 12:19:29;;;;;;;21.67;13.03;;;15.60;80.80;;;;;;5001033;28;20822;-78
2022/10/12 12:22:22;;;;;;;24.50;14.40;;;15.70;80.20;;;;;;4995188;28;20449;-80
2022/10/12 12:25:03;;;;;;;25.10;14.00;;;15.80;80.30;;;;;;4996029;28;20445;-80
2022/10/12 12:27:34;;;;;;;26.03;12.87;;;15.80;80.20;;;;;;4998770;28;20581;-78
2022/10/12 12:30:19;;;;;;;22.70;12.20;;;15.80;80.10;;;;;;5001424;28;20476;-78
2022/10/12 12:32:51;;;;;;;19.77;13.73;;;15.80;80.00;;;;;;5001965;28;20467;-79
2022/10/12 12:35:22;;;;;;;22.23;12.67;;;15.80;80.00;;;;;;4996008;28;20446;-77
2022/10/12 12:38:06;;;;;;;20.07;12.30;;;15.80;79.90;;;;;;5000005;28;20502;-79
2022/10/12 12:40:34;;;;;;;27.60;13.40;;;15.90;79.70;;;;;;5001469;28;21009;-78
2022/10/12 12:43:34;;;;;;;27.27;14.13;;;15.90;79.70;;;;;;4995597;28;21239;-79
2022/10/12 12:46:04;;;;;;;29.60;12.40;;;15.90;79.30;;;;;;4997002;28;20461;-78
2022/10/12 12:49:02;;;;;;;23.20;14.63;;;15.90;79.50;;;;;;5002148;28;20457;-78
2022/10/12 12:51:42;;;;;;;18.47;12.10;;;16.00;79.60;;;;;;4998298;28;20564;-79
2022/10/12 12:54:17;;;;;;;16.90;11.77;;;16.00;79.50;;;;;;4999260;28;20495;-77
2022/10/12 12:57:07;;;;;;;19.67;12.60;;;16.10;79.50;;;;;;4997956;28;20735;-77
2022/10/12 13:00:19;;;;;;;22.93;13.10;;;16.10;79.30;;;;;;4998954;28;20472;-80
2022/10/12 13:03:23;;;;;;;20.40;14.50;;;16.10;79.30;;;;;;4996698;28;20464;-77
2022/10/12 13:06:28;;;;;;;23.53;14.23;;;16.20;79.30;;;;;;4996707;28;20469;-79